Time;durP1;ratioP1;P1;durP2;ratioP2;P2;SDS_P1;SDS_P2;PMS_P1;PMS_P2;Temp;Humidity;BMP_temperature;BMP_pressure;BME280_temperature;BME280_humidity;BME280_pressure;Samples;Min_cycle;Max_cycle;Signal;HPM_P1;HPM_P2
2022/03/29 00:03:33;;;;;;;17.85;10.02;;;;;;;10.45;51.20;99590.94;12195993;19;20010;-84
2022/03/29 00:07:36;;;;;;;19.15;9.60;;;;;;;10.46;51.16;99585.16;12210426;19;20006;-80
2022/03/29 00:11:38;;;;;;;18.20;9.02;;;;;;;10.47;51.47;99578.56;12216368;19;20551;-81
2022/03/29 00:15:40;;;;;;;18.13;8.63;;;;;;;10.46;51.72;99578.81;12195513;19;20018;-85
2022/03/29 00:19:41;;;;;;;19.20;9.18;;;;;;;10.45;51.55;99572.47;12219019;19;20022;-80
2022/03/29 00:23:43;;;;;;;18.48;9.75;;;;;;;10.43;51.64;99571.06;12219342;19;20021;-80
2022/03/29 00:27:45;;;;;;;21.75;8.98;;;;;;;10.40;51.86;99563.31;12199030;19;19999;-81
2022/03/29 00:31:47;;;;;;;21.05;10.52;;;;;;;10.38;51.84;99559.97;12214743;19;20018;-82
2022/03/29 00:35:48;;;;;;;18.50;9.82;;;;;;;10.38;52.00;99562.72;12223693;19;20018;-82
2022/03/29 00:39:50;;;;;;;17.88;9.73;;;;;;;10.36;52.28;99559.41;12190127;19;20042;-79
2022/03/29 00:43:52;;;;;;;24.27;11.50;;;;;;;10.33;52.25;99558.00;12212534;19;20002;-81
2022/03/29 00:47:54;;;;;;;23.63;10.80;;;;;;;10.32;52.62;99556.34;12209250;19;20019;-81
2022/03/29 00:51:58;;;;;;;27.35;11.23;;;;;;;10.29;52.96;99556.81;12196555;19;20002;-85
2022/03/29 00:56:02;;;;;;;22.20;10.60;;;;;;;10.29;52.88;99561.50;12218188;19;20007;-80
2022/03/29 01:00:05;;;;;;;20.20;9.88;;;;;;;10.25;53.19;99561.16;12214540;19;20077;-85
2022/03/29 01:04:06;;;;;;;23.17;10.68;;;;;;;10.22;53.13;99556.16;12198316;19;20006;-82
2022/03/29 01:08:08;;;;;;;22.17;10.45;;;;;;;10.21;53.06;99560.00;12224839;19;20015;-84
2022/03/29 01:12:10;;;;;;;24.27;10.80;;;;;;;10.19;53.38;99551.97;12230062;19;20014;-84
2022/03/29 01:20:47;;;;;;;21.80;10.32;;;;;;;10.15;53.58;99541.75;12223207;19;20721;-81
2022/03/29 01:24:51;;;;;;;20.55;10.70;;;;;;;10.10;53.69;99536.97;12205005;19;20011;-82
2022/03/29 01:28:54;;;;;;;26.20;11.55;;;;;;;10.10;53.84;99527.88;12227802;19;20010;-84
2022/03/29 01:32:59;;;;;;;26.10;12.07;;;;;;;10.10;54.38;99525.13;12222568;19;20031;-81
2022/03/29 01:37:03;;;;;;;27.30;12.80;;;;;;;10.14;55.31;99518.03;12197095;19;20014;-80
2022/03/29 01:41:05;;;;;;;24.42;12.77;;;;;;;10.16;55.39;99522.19;12222368;19;20015;-83
2022/03/29 01:45:09;;;;;;;33.28;13.38;;;;;;;10.13;55.25;99508.13;12219788;19;20006;-80
2022/03/29 01:49:12;;;;;;;31.27;13.50;;;;;;;10.06;55.64;99510.22;12213211;19;19998;-81
2022/03/29 01:53:27;;;;;;;37.05;16.85;;;;;;;9.99;56.88;99508.50;12219771;19;20017;-83
2022/03/29 01:57:30;;;;;;;26.80;14.68;;;;;;;9.94;56.83;99489.13;12210313;19;20014;-81
2022/03/29 02:01:46;;;;;;;35.53;15.67;;;;;;;9.90;57.43;99493.47;12225137;19;20017;-86
2022/03/29 02:05:49;;;;;;;31.67;16.30;;;;;;;9.82;57.50;99493.91;12222255;19;20022;-82
2022/03/29 02:09:50;;;;;;;28.23;13.80;;;;;;;9.73;58.11;99485.25;12196555;19;20018;-81
2022/03/29 02:13:53;;;;;;;32.63;14.27;;;;;;;9.66;58.78;99487.34;12212792;19;20255;-82
2022/03/29 02:17:55;;;;;;;35.30;15.20;;;;;;;9.57;58.92;99477.84;12226436;19;20581;-82
2022/03/29 02:21:57;;;;;;;32.35;13.73;;;;;;;9.50;60.18;99480.78;12196863;19;20706;-84
2022/03/29 02:25:59;;;;;;;34.22;15.48;;;;;;;9.41;60.61;99478.69;12213422;19;20111;-83
2022/03/29 02:30:01;;;;;;;29.17;14.80;;;;;;;9.32;60.91;99470.84;12233034;19;20750;-80
2022/03/29 02:34:03;;;;;;;32.67;14.98;;;;;;;9.29;61.17;99474.09;12200327;19;20015;-78
2022/03/29 02:38:06;;;;;;;33.53;15.33;;;;;;;9.23;61.74;99466.03;12225330;19;20381;-80
2022/03/29 02:42:08;;;;;;;;;;;;;;;9.16;62.79;99473.59;12218401;19;20013;-83
2022/03/29 02:46:09;;;;;;;38.67;16.20;;;;;;;9.10;62.39;99459.78;12199006;19;19922;-82
2022/03/29 02:50:12;;;;;;;30.85;16.75;;;;;;;9.04;62.71;99458.03;12227537;19;20040;-81
2022/03/29 02:54:14;;;;;;;36.53;17.42;;;;;;;8.98;63.70;99445.25;12224942;19;20562;-81
2022/03/29 02:58:16;;;;;;;41.47;18.58;;;;;;;8.95;63.92;99444.94;12223138;19;20010;-82
2022/03/29 03:02:19;;;;;;;34.13;15.82;;;;;;;8.94;64.00;99441.34;12219183;19;20507;-82
2022/03/29 03:06:24;;;;;;;37.28;17.52;;;;;;;8.94;64.51;99441.34;12199554;19;20011;-81
2022/03/29 03:10:30;;;;;;;37.53;17.08;;;;;;;8.90;65.05;99442.94;12213847;19;20010;-81
2022/03/29 03:14:32;;;;;;;41.42;17.77;;;;;;;8.89;65.41;99433.00;12221697;19;20479;-82
2022/03/29 03:18:34;;;;;;;39.38;18.08;;;;;;;8.94;65.35;99424.03;12199419;19;20019;-82
2022/03/29 03:22:37;;;;;;;38.67;18.23;;;;;;;8.98;65.71;99425.19;12224280;19;20015;-85
2022/03/29 03:26:39;;;;;;;37.83;18.17;;;;;;;9.01;65.74;99422.81;12214932;19;20023;-79
2022/03/29 03:30:40;;;;;;;32.40;16.35;;;;;;;9.07;65.83;99430.06;12192124;19;20347;-83
2022/03/29 03:34:42;;;;;;;37.15;19.20;;;;;;;9.12;65.90;99429.28;12216635;19;20010;-80
2022/03/29 03:38:44;;;;;;;37.42;18.27;;;;;;;9.10;66.33;99429.56;12217839;19;20007;-82
2022/03/29 03:42:45;;;;;;;41.83;18.10;;;;;;;9.07;67.36;99419.06;12183269;19;20027;-81
2022/03/29 03:46:47;;;;;;;35.63;17.88;;;;;;;9.02;68.23;99415.38;12210908;19;20010;-82
2022/03/29 03:50:49;;;;;;;34.70;16.90;;;;;;;9.00;68.59;99412.03;12212891;19;20037;-81
2022/03/29 03:54:51;;;;;;;37.97;18.08;;;;;;;9.00;68.94;99407.38;12194085;19;20050;-81
2022/03/29 03:58:53;;;;;;;38.50;18.73;;;;;;;9.04;67.97;99393.97;12220173;19;20022;-80
2022/03/29 04:02:54;;;;;;;34.80;18.08;;;;;;;9.05;68.88;99399.22;12213452;19;20015;-80
2022/03/29 04:06:56;;;;;;;37.40;17.87;;;;;;;9.11;67.95;99389.97;12183294;19;20095;-79
2022/03/29 04:10:59;;;;;;;36.45;17.80;;;;;;;9.13;68.33;99387.81;12212422;19;20042;-82
2022/03/29 04:15:01;;;;;;;27.83;12.57;;;;;;;9.16;68.92;99388.38;12205936;19;20459;-81
2022/03/29 04:19:02;;;;;;;41.30;17.67;;;;;;;9.11;69.08;99387.22;12189691;19;20779;-83
2022/03/29 04:23:04;;;;;;;40.33;20.15;;;;;;;9.07;69.24;99380.56;12214242;19;20015;-80
2022/03/29 04:27:06;;;;;;;41.50;20.05;;;;;;;9.04;70.23;99374.72;12197714;19;20017;-80
2022/03/29 04:31:08;;;;;;;43.30;20.45;;;;;;;9.01;70.00;99366.97;12188682;19;20658;-82
2022/03/29 04:35:10;;;;;;;37.88;19.30;;;;;;;9.02;70.26;99364.00;12216392;19;20041;-80
2022/03/29 04:39:17;;;;;;;47.60;20.85;;;;;;;9.00;70.66;99344.16;12187229;19;20502;-80
2022/03/29 04:43:24;;;;;;;41.47;18.70;;;;;;;8.98;71.54;99354.56;12212816;19;20010;-82
2022/03/29 04:47:25;;;;;;;41.63;20.60;;;;;;;9.02;73.45;99343.94;12207134;19;20023;-82
2022/03/29 04:51:27;;;;;;;41.45;20.05;;;;;;;9.10;72.77;99349.84;12188104;19;20010;-81
2022/03/29 04:55:30;;;;;;;41.75;21.60;;;;;;;9.09;73.02;99350.91;12210449;19;20378;-87
2022/03/29 04:59:32;;;;;;;46.40;21.05;;;;;;;9.15;72.21;99351.00;12241083;19;20009;-83
2022/03/29 05:03:33;;;;;;;45.58;21.48;;;;;;;9.16;72.49;99355.41;12189989;19;20027;-83
2022/03/29 05:07:37;;;;;;;39.80;20.10;;;;;;;9.19;72.19;99354.88;12213428;19;20410;-84
2022/03/29 05:11:39;;;;;;;45.75;21.52;;;;;;;9.25;71.74;99356.63;12214496;19;20051;-81
2022/03/29 05:15:44;;;;;;;39.13;19.17;;;;;;;9.30;71.48;99353.97;12190013;19;20018;-82
2022/03/29 05:19:45;;;;;;;;;;;;;;;9.32;72.87;99349.88;12217034;19;20026;-79
2022/03/29 05:23:47;;;;;;;45.40;20.42;;;;;;;9.36;71.43;99342.78;12212637;19;20015;-82
2022/03/29 05:27:51;;;;;;;40.13;20.35;;;;;;;9.40;71.69;99343.13;12191812;19;20019;-80
2022/03/29 05:31:52;;;;;;;45.58;20.63;;;;;;;9.43;72.66;99341.75;12206350;19;20015;-81
2022/03/29 05:35:54;;;;;;;44.75;21.50;;;;;;;9.51;71.64;99344.09;12211099;19;20015;-79
2022/03/29 05:39:56;;;;;;;47.28;21.45;;;;;;;9.54;71.24;99355.41;12180270;19;20007;-82
2022/03/29 05:43:58;;;;;;;40.95;20.00;;;;;;;9.59;71.30;99363.72;12202272;19;20511;-82
2022/03/29 05:52:22;;;;;;;44.42;20.42;;;;;;;9.70;71.07;99355.63;12171474;19;20014;-80
2022/03/29 05:56:24;;;;;;;43.78;21.33;;;;;;;9.71;71.22;99357.28;12214369;19;20011;-80
2022/03/29 06:00:27;;;;;;;38.73;19.87;;;;;;;9.74;71.22;99363.09;12192413;19;20015;-80
2022/03/29 06:04:32;;;;;;;45.50;20.67;;;;;;;9.82;71.02;99370.09;12214052;19;20034;-80
2022/03/29 06:08:35;;;;;;;47.35;20.77;;;;;;;9.88;70.40;99374.56;12215680;19;20453;-81
2022/03/29 06:12:37;;;;;;;;;;;;;;;9.94;70.79;99373.53;12185061;19;20716;-79
2022/03/29 06:16:38;;;;;;;40.45;18.95;;;;;;;10.05;70.07;99377.22;12208478;19;19914;-80
2022/03/29 06:20:40;;;;;;;39.97;19.58;;;;;;;10.09;70.55;99383.09;12210466;19;20017;-80
2022/03/29 06:24:43;;;;;;;38.45;18.98;;;;;;;10.14;70.48;99372.97;12183858;19;20014;-79
2022/03/29 06:28:45;;;;;;;39.22;18.85;;;;;;;10.24;69.75;99389.59;12213212;19;20011;-81
2022/03/29 06:32:51;;;;;;;41.72;19.77;;;;;;;10.29;69.62;99393.50;12206515;19;20011;-79
2022/03/29 06:36:53;;;;;;;36.80;17.92;;;;;;;10.33;69.63;99394.69;12191794;19;20011;-80
2022/03/29 06:40:59;;;;;;;42.28;19.58;;;;;;;10.42;69.10;99382.09;12203693;19;20892;-80
2022/03/29 06:45:00;;;;;;;43.92;20.02;;;;;;;10.42;69.21;99380.19;12205374;19;20019;-80
2022/03/29 06:49:03;;;;;;;38.03;18.95;;;;;;;10.50;69.14;99384.41;12181885;19;20882;-79
2022/03/29 06:53:10;;;;;;;35.28;18.65;;;;;;;10.62;68.59;99392.47;12199007;19;20006;-79
2022/03/29 06:57:14;;;;;;;41.95;19.27;;;;;;;10.78;68.09;99393.47;12210282;19;20006;-80
2022/03/29 07:01:17;;;;;;;38.63;18.83;;;;;;;10.89;67.84;99395.25;12178106;19;20066;-80
2022/03/29 07:05:22;;;;;;;41.28;18.65;;;;;;;11.01;67.66;99387.63;12205802;19;20023;-81
2022/03/29 07:13:51;;;;;;;37.30;18.90;;;;;;;11.21;66.71;99392.44;12212048;19;20120;-80
2022/03/29 07:17:55;;;;;;;43.22;19.38;;;;;;;11.25;66.69;99390.84;12205198;19;20003;-80
2022/03/29 07:21:59;;;;;;;38.95;18.50;;;;;;;11.41;66.15;99386.25;12187423;19;20006;-80
2022/03/29 07:26:01;;;;;;;42.22;19.30;;;;;;;11.50;65.63;99387.41;12206367;19;20007;-79
2022/03/29 07:30:05;;;;;;;36.75;18.23;;;;;;;11.62;65.31;99379.75;12203089;19;20010;-80
2022/03/29 07:34:07;;;;;;;36.85;18.52;;;;;;;11.88;65.02;99376.34;12184236;19;20010;-81
2022/03/29 07:38:09;;;;;;;38.72;18.75;;;;;;;11.97;64.53;99383.84;12204972;19;20024;-79
2022/03/29 07:42:11;;;;;;;36.77;18.10;;;;;;;12.15;64.01;99382.53;12209006;19;20017;-79
2022/03/29 07:46:13;;;;;;;38.42;19.70;;;;;;;12.41;63.31;99385.38;12177016;19;20277;-80
2022/03/29 07:50:15;;;;;;;36.60;17.90;;;;;;;12.57;62.15;99376.00;12209510;19;20010;-81
2022/03/29 07:54:28;;;;;;;42.20;16.90;;;;;;;12.91;61.58;99381.00;12191073;19;20527;-80
2022/03/29 07:58:30;;;;;;;40.33;18.77;;;;;;;13.22;60.56;99373.56;12208034;19;20082;-82
2022/03/29 08:02:35;;;;;;;40.22;18.83;;;;;;;13.44;60.09;99379.66;12204376;19;20062;-81
2022/03/29 08:06:38;;;;;;;35.13;18.17;;;;;;;13.60;59.51;99372.16;12175890;19;20042;-82
2022/03/29 08:10:41;;;;;;;41.10;18.77;;;;;;;13.74;59.50;99377.09;12207079;19;20695;-81
2022/03/29 08:14:45;;;;;;;35.53;18.05;;;;;;;13.94;58.08;99382.56;12207242;19;20013;-82
2022/03/29 08:18:48;;;;;;;41.20;19.00;;;;;;;13.99;57.80;99376.19;12182443;19;20070;-81
2022/03/29 08:22:50;;;;;;;41.10;19.50;;;;;;;13.98;56.83;99371.75;12212877;19;20491;-81
2022/03/29 08:26:54;;;;;;;37.10;18.85;;;;;;;13.89;57.28;99374.25;12208329;19;20006;-82
2022/03/29 08:31:01;;;;;;;37.60;18.50;;;;;;;14.00;57.56;99375.06;12182984;19;20026;-81
2022/03/29 08:35:05;;;;;;;35.55;18.13;;;;;;;13.94;56.42;99365.94;12208785;19;20098;-81
2022/03/29 08:39:08;;;;;;;38.50;18.52;;;;;;;14.06;56.62;99366.44;12211952;19;20006;-81
2022/03/29 08:43:12;;;;;;;33.97;17.98;;;;;;;14.19;56.56;99361.38;12179865;19;20024;-82
2022/03/29 08:47:15;;;;;;;42.78;18.73;;;;;;;14.21;56.36;99362.78;12207528;19;20649;-80
2022/03/29 08:51:28;;;;;;;39.75;20.38;;;;;;;14.20;56.03;99363.88;12179805;19;20015;-80
2022/03/29 08:55:35;;;;;;;34.95;18.05;;;;;;;14.27;56.21;99360.81;12210037;19;20016;-81
2022/03/29 08:59:37;;;;;;;40.50;18.97;;;;;;;14.20;55.64;99354.75;12201672;19;20033;-81
2022/03/29 09:03:41;;;;;;;40.97;19.95;;;;;;;14.39;55.50;99352.97;12181786;19;20060;-81
2022/03/29 09:07:52;;;;;;;37.30;19.25;;;;;;;14.57;55.20;99351.50;12201645;19;20371;-81
2022/03/29 09:11:56;;;;;;;37.92;18.85;;;;;;;14.63;54.51;99346.75;12200251;19;20010;-80
2022/03/29 09:16:00;;;;;;;35.20;20.10;;;;;;;14.48;54.86;99348.47;12180802;19;20011;-81
2022/03/29 09:20:04;;;;;;;41.25;20.05;;;;;;;14.75;54.75;99350.84;12199392;19;20026;-83
2022/03/29 09:24:08;;;;;;;39.00;19.00;;;;;;;14.96;54.26;99348.75;12210317;19;20018;-79
2022/03/29 09:28:12;;;;;;;44.33;20.33;;;;;;;15.16;52.93;99344.94;12199321;19;20014;-82
2022/03/29 09:32:17;;;;;;;37.67;19.05;;;;;;;15.26;52.67;99335.72;12220192;19;20023;-79
2022/03/29 09:36:21;;;;;;;37.97;20.48;;;;;;;15.14;52.80;99338.03;12213615;19;20356;-82
2022/03/29 09:40:32;;;;;;;36.80;19.60;;;;;;;15.48;52.83;99327.69;12223914;19;20365;-80
2022/03/29 09:44:57;;;;;;;37.25;20.63;;;;;;;15.82;52.22;99328.72;12216000;19;20439;-82
2022/03/29 09:49:00;;;;;;;39.45;19.52;;;;;;;15.88;51.70;99330.31;12189903;19;20030;-82
2022/03/29 09:53:03;;;;;;;37.67;18.88;;;;;;;15.93;51.43;99324.72;12216100;19;20030;-81
2022/03/29 09:57:09;;;;;;;42.92;21.30;;;;;;;16.31;50.28;99316.44;12205958;19;20638;-82
2022/03/29 10:01:23;;;;;;;36.47;19.27;;;;;;;16.45;50.24;99319.25;12187856;19;20030;-82
2022/03/29 10:05:26;;;;;;;37.08;20.10;;;;;;;16.57;49.07;99314.94;12208797;19;20014;-82
2022/03/29 10:09:42;;;;;;;48.00;22.25;;;;;;;16.48;48.44;99301.97;12181227;19;20038;-83
2022/03/29 10:13:46;;;;;;;44.15;21.15;;;;;;;16.91;48.33;99294.38;12199903;19;20389;-83
2022/03/29 10:17:48;;;;;;;35.70;20.00;;;;;;;17.04;47.34;99290.81;12221558;19;20350;-80
2022/03/29 10:21:55;;;;;;;38.88;21.52;;;;;;;17.09;47.56;99287.09;12199103;19;20021;-83
2022/03/29 10:25:59;;;;;;;35.45;20.80;;;;;;;17.36;47.19;99275.19;12219018;19;20019;-83
2022/03/29 10:30:00;;;;;;;45.75;21.80;;;;;;;17.50;47.27;99264.06;12221024;19;20113;-83
2022/03/29 10:34:16;;;;;;;41.65;21.90;;;;;;;17.44;46.53;99265.28;12193043;19;20014;-82
2022/03/29 10:38:45;;;;;;;42.80;20.83;;;;;;;17.75;46.23;99254.34;12208364;19;20039;-80
2022/03/29 10:42:47;;;;;;;39.20;20.25;;;;;;;17.75;45.85;99243.19;12174243;19;20019;-79
2022/03/29 10:46:52;;;;;;;38.00;21.10;;;;;;;17.90;46.04;99234.53;12195593;19;20155;-80
2022/03/29 10:50:57;;;;;;;40.53;21.42;;;;;;;17.89;45.92;99232.88;12187959;19;20083;-80
2022/03/29 10:55:17;;;;;;;40.13;20.48;;;;;;;18.25;44.83;99228.47;12181906;19;20020;-79
2022/03/29 10:59:19;;;;;;;40.40;20.92;;;;;;;17.87;44.56;99221.22;12204096;19;22020;-81
2022/03/29 11:03:33;;;;;;;45.08;20.35;;;;;;;18.02;44.87;99219.22;12174161;19;20472;-80
2022/03/29 11:07:59;;;;;;;42.05;22.63;;;;;;;18.12;44.46;99211.47;12204292;19;20015;-81
2022/03/29 11:12:01;;;;;;;40.47;21.63;;;;;;;18.31;44.60;99202.91;12203350;19;20346;-81
2022/03/29 11:16:25;;;;;;;38.47;21.85;;;;;;;18.45;43.65;99195.31;12186262;19;20011;-80
2022/03/29 11:20:33;;;;;;;37.60;20.17;;;;;;;18.16;44.13;99198.53;12197798;19;20090;-81
2022/03/29 11:24:36;;;;;;;36.50;21.35;;;;;;;18.25;44.05;99186.63;12178290;19;20000;-81
2022/03/29 11:28:49;;;;;;;41.63;20.92;;;;;;;18.38;43.75;99174.59;12212782;19;20042;-82
2022/03/29 11:32:55;;;;;;;33.42;19.80;;;;;;;18.45;43.42;99173.00;12201078;19;20002;-81
2022/03/29 11:36:57;;;;;;;32.72;20.15;;;;;;;18.80;43.30;99159.31;12191246;19;20064;-81
2022/03/29 11:41:02;;;;;;;37.92;19.48;;;;;;;19.07;42.39;99161.06;12207112;19;20425;-81
2022/03/29 11:45:06;;;;;;;33.17;19.35;;;;;;;18.92;42.55;99150.34;12211692;19;20014;-82
2022/03/29 11:49:08;;;;;;;33.03;18.77;;;;;;;18.72;42.69;99143.31;12183433;19;20014;-81
2022/03/29 11:53:28;;;;;;;34.23;18.90;;;;;;;18.81;41.88;99135.81;12202219;19;20665;-81
2022/03/29 11:57:35;;;;;;;34.30;16.83;;;;;;;18.75;42.53;99131.53;12193212;19;20036;-82
2022/03/29 12:01:38;;;;;;;36.55;18.17;;;;;;;18.68;41.85;99126.38;12206445;19;20020;-81
2022/03/29 12:05:42;;;;;;;36.88;18.63;;;;;;;18.73;42.27;99121.78;12201214;19;20018;-82
2022/03/29 12:09:50;;;;;;;33.42;17.88;;;;;;;18.93;41.15;99115.69;12187266;19;20017;-82
2022/03/29 12:14:03;;;;;;;30.33;16.00;;;;;;;18.73;41.71;99107.84;12207774;19;20015;-82
2022/03/29 12:22:29;;;;;;;30.98;15.90;;;;;;;18.54;41.45;99094.94;12178456;19;20476;-81
2022/03/29 12:26:36;;;;;;;31.90;14.85;;;;;;;18.96;40.91;99080.72;12216242;19;20482;-82
2022/03/29 12:30:38;;;;;;;29.20;15.80;;;;;;;19.14;40.59;99071.22;12188553;19;20022;-82
2022/03/29 12:34:41;;;;;;;;;;;;;;;19.07;40.96;99066.13;12207491;19;20047;-81
2022/03/29 12:38:48;;;;;;;29.75;16.58;;;;;;;19.15;40.21;99053.31;12211727;19;19911;-83
2022/03/29 12:43:01;;;;;;;32.88;16.08;;;;;;;19.10;39.70;99042.31;12187774;19;20011;-83
2022/03/29 12:47:05;;;;;;;27.20;15.40;;;;;;;19.04;39.75;99047.25;12189222;19;20015;-84
2022/03/29 12:51:07;;;;;;;28.23;16.08;;;;;;;18.93;39.80;99036.69;12177276;19;20015;-82
2022/03/29 12:55:14;;;;;;;27.53;15.43;;;;;;;18.80;39.60;99038.44;12178299;19;20480;-82
2022/03/29 12:59:40;;;;;;;32.38;15.60;;;;;;;18.89;39.15;99030.94;12202094;19;20014;-81
2022/03/29 13:03:45;;;;;;;30.17;15.48;;;;;;;18.79;39.25;99006.91;12202354;19;20007;-80
2022/03/29 13:07:48;;;;;;;30.48;16.60;;;;;;;19.19;39.27;99004.06;12223633;19;20018;-80
2022/03/29 13:12:08;;;;;;;32.92;17.08;;;;;;;19.37;38.39;98999.31;12213961;19;20469;-79
2022/03/29 13:16:22;;;;;;;29.52;15.48;;;;;;;19.44;38.18;98988.47;12193241;19;20006;-81
2022/03/29 13:20:26;;;;;;;38.50;17.10;;;;;;;19.54;37.94;98985.34;12217024;19;20496;-81
2022/03/29 13:24:38;;;;;;;33.25;17.67;;;;;;;19.70;37.71;98976.50;12199350;19;20018;-80
2022/03/29 13:28:40;;;;;;;33.40;17.38;;;;;;;19.79;37.58;98980.09;12214795;19;20453;-81
2022/03/29 13:32:46;;;;;;;35.78;19.05;;;;;;;19.94;36.93;98976.75;12220927;19;20032;-80
2022/03/29 13:36:47;;;;;;;35.60;17.63;;;;;;;19.92;37.23;98972.66;12202243;19;20024;-80
2022/03/29 13:40:52;;;;;;;34.67;17.90;;;;;;;19.80;37.25;98973.34;12211582;19;20025;-81
2022/03/29 13:44:54;;;;;;;36.30;17.48;;;;;;;19.80;36.51;98964.94;12224074;19;20009;-79
2022/03/29 13:48:56;;;;;;;38.70;18.55;;;;;;;19.55;37.10;98959.03;12202216;19;20007;-80
2022/03/29 13:52:58;;;;;;;34.20;19.00;;;;;;;19.48;36.77;98944.75;12220606;19;20018;-79
2022/03/29 13:57:01;;;;;;;37.17;18.85;;;;;;;19.27;36.91;98950.16;12223768;19;20270;-80
2022/03/29 14:01:04;;;;;;;37.22;17.77;;;;;;;19.18;37.55;98942.94;12193999;19;20369;-80
2022/03/29 14:05:07;;;;;;;31.52;17.15;;;;;;;19.20;37.18;98937.84;12217646;19;20019;-80
2022/03/29 14:09:09;;;;;;;31.77;16.60;;;;;;;19.27;37.31;98938.16;12210522;19;20003;-80
2022/03/29 14:13:12;;;;;;;;;;;;;;;19.20;37.87;98930.28;12189256;19;20030;-80
2022/03/29 14:17:14;;;;;;;36.60;17.27;;;;;;;19.20;38.55;98924.72;12216782;19;20482;-80
2022/03/29 14:21:22;;;;;;;30.33;15.85;;;;;;;19.36;38.82;98922.22;12197596;19;20788;-80
2022/03/29 14:25:38;;;;;;;35.13;17.80;;;;;;;19.39;38.73;98915.97;12221157;19;20034;-82
2022/03/29 14:29:41;;;;;;;37.67;17.13;;;;;;;19.40;38.58;98906.47;12218770;19;20010;-82
2022/03/29 14:33:55;;;;;;;32.25;17.63;;;;;;;19.47;38.14;98900.38;12208017;19;20026;-79
2022/03/29 14:37:57;;;;;;;35.05;17.13;;;;;;;19.33;38.26;98895.81;12212212;19;20007;-80
2022/03/29 14:41:59;;;;;;;32.47;15.52;;;;;;;19.25;38.39;98895.81;12210478;19;20014;-81
2022/03/29 14:46:02;;;;;;;34.35;17.67;;;;;;;19.12;38.23;98890.03;12189594;19;20018;-80
2022/03/29 14:50:08;;;;;;;39.73;19.60;;;;;;;18.85;38.40;98888.38;12212615;19;20027;-78
2022/03/29 14:54:10;;;;;;;36.80;17.48;;;;;;;18.75;38.14;98877.56;12219117;19;20348;-78
2022/03/29 14:58:12;;;;;;;33.65;15.50;;;;;;;18.57;38.13;98873.06;12194763;19;20011;-79
2022/03/29 15:02:14;;;;;;;35.20;15.38;;;;;;;18.56;38.68;98877.84;12213587;19;20007;-79
2022/03/29 15:06:16;;;;;;;32.65;15.48;;;;;;;18.49;39.07;98869.13;12201967;19;20015;-78
2022/03/29 15:10:18;;;;;;;32.70;15.55;;;;;;;18.39;38.84;98875.81;12202952;19;20014;-80
2022/03/29 15:14:20;;;;;;;32.20;17.45;;;;;;;18.30;38.68;98868.59;12208757;19;20492;-79
2022/03/29 15:18:23;;;;;;;36.22;16.20;;;;;;;18.19;39.79;98863.28;12186041;19;20752;-80
2022/03/29 15:22:28;;;;;;;35.55;17.02;;;;;;;18.03;39.04;98853.75;12210429;19;20034;-79
2022/03/29 15:26:31;;;;;;;31.90;15.35;;;;;;;17.95;39.47;98868.47;12206158;19;20023;-78
2022/03/29 15:30:33;;;;;;;32.67;14.98;;;;;;;17.88;39.39;98859.75;12182827;19;20018;-79
2022/03/29 15:34:35;;;;;;;34.25;14.38;;;;;;;17.83;39.21;98854.31;12211883;19;20131;-78
2022/03/29 15:38:37;;;;;;;34.67;16.17;;;;;;;17.74;39.22;98857.84;12211521;19;20058;-78
2022/03/29 15:42:41;;;;;;;40.83;17.77;;;;;;;17.62;39.92;98852.06;12180580;19;20108;-79
2022/03/29 15:46:43;;;;;;;38.80;20.48;;;;;;;17.62;40.04;98851.25;12207003;19;20010;-79
2022/03/29 15:50:45;;;;;;;42.88;17.17;;;;;;;17.58;39.84;98851.06;12206052;19;20018;-79
2022/03/29 15:54:49;;;;;;;31.25;15.52;;;;;;;17.51;39.64;98842.31;12183109;19;20504;-79
2022/03/29 15:58:51;;;;;;;35.80;17.13;;;;;;;17.33;39.87;98841.41;12206406;19;20095;-79
2022/03/29 16:02:55;;;;;;;32.70;16.17;;;;;;;17.16;40.10;98839.31;12202535;19;20030;-78
2022/03/29 16:06:58;;;;;;;35.67;16.05;;;;;;;16.99;40.45;98836.44;12187186;19;20483;-79
2022/03/29 16:11:01;;;;;;;27.60;14.30;;;;;;;16.84;40.57;98821.75;12206063;19;20043;-79
2022/03/29 16:15:07;;;;;;;30.52;14.40;;;;;;;16.85;40.59;98819.78;12202442;19;20023;-79
2022/03/29 16:19:10;;;;;;;32.60;14.73;;;;;;;16.79;40.47;98824.66;12183072;19;20010;-78
2022/03/29 16:23:12;;;;;;;27.50;13.75;;;;;;;16.72;41.25;98815.09;12208816;19;20007;-77
2022/03/29 16:27:13;;;;;;;32.20;14.07;;;;;;;16.58;41.41;98826.25;12210110;19;20010;-79
2022/03/29 16:31:20;;;;;;;25.42;12.32;;;;;;;16.47;41.54;98820.06;12186633;19;20011;-80
2022/03/29 16:35:22;;;;;;;23.80;11.90;;;;;;;16.35;41.91;98817.84;12212457;19;20531;-80
2022/03/29 16:39:26;;;;;;;23.52;11.65;;;;;;;16.26;42.75;98813.34;12184627;19;20031;-80
2022/03/29 16:43:33;;;;;;;24.50;9.80;;;;;;;16.20;43.45;98815.41;12212844;19;20023;-78
2022/03/29 16:47:36;;;;;;;19.17;10.32;;;;;;;16.14;44.29;98806.34;12207989;19;20364;-80
2022/03/29 16:51:38;;;;;;;23.40;10.43;;;;;;;16.02;43.88;98802.47;12185720;19;20803;-79
2022/03/29 16:55:40;;;;;;;19.77;9.77;;;;;;;15.91;44.64;98804.63;12213950;19;20021;-79
2022/03/29 16:59:44;;;;;;;20.13;10.45;;;;;;;15.88;44.59;98796.91;12202067;19;20006;-78
2022/03/29 17:03:49;;;;;;;17.05;9.00;;;;;;;15.76;44.66;98802.97;12191236;19;20018;-78
2022/03/29 17:07:51;;;;;;;19.92;9.18;;;;;;;15.63;44.36;98801.00;12200504;19;20026;-79
2022/03/29 17:11:53;;;;;;;16.08;8.07;;;;;;;15.44;44.34;98809.44;12197655;19;20389;-79
2022/03/29 17:15:56;;;;;;;17.80;8.20;;;;;;;15.33;45.33;98806.00;12181667;19;20011;-78
2022/03/29 17:19:59;;;;;;;16.23;7.80;;;;;;;15.22;45.85;98802.59;12208495;19;20011;-78
2022/03/29 17:24:02;;;;;;;17.43;7.60;;;;;;;15.11;45.71;98798.38;12205216;19;20035;-79
2022/03/29 17:28:05;;;;;;;20.83;7.80;;;;;;;15.04;46.39;98792.38;12178904;19;20014;-78
2022/03/29 17:32:07;;;;;;;16.83;7.55;;;;;;;14.92;47.39;98795.63;12203268;19;20026;-78
2022/03/29 17:36:09;;;;;;;15.32;8.02;;;;;;;14.80;47.42;98787.78;12196416;19;20011;-78
2022/03/29 17:40:11;;;;;;;17.30;7.40;;;;;;;14.70;47.67;98787.94;12174573;19;20011;-78
2022/03/29 17:44:13;;;;;;;13.90;6.47;;;;;;;14.57;48.00;98781.22;12195967;19;20090;-77
2022/03/29 17:48:15;;;;;;;12.68;6.63;;;;;;;14.48;48.55;98782.97;12208885;19;20017;-77
2022/03/29 17:52:18;;;;;;;12.52;6.25;;;;;;;14.39;49.28;98778.41;12213924;19;20034;-77
2022/03/29 17:56:21;;;;;;;;;;;;;;;14.26;49.41;98785.53;12208355;19;20094;-77
2022/03/29 18:00:24;;;;;;;17.05;5.75;;;;;;;14.18;49.22;98780.66;12181938;19;19902;-77
2022/03/29 18:04:31;;;;;;;12.75;6.43;;;;;;;14.07;49.69;98778.06;12214055;19;20354;-78
2022/03/29 18:08:33;;;;;;;14.40;5.60;;;;;;;13.99;50.08;98770.41;12209706;19;20019;-78
2022/03/29 18:12:37;;;;;;;12.88;5.72;;;;;;;13.90;50.58;98773.00;12181504;19;20019;-78
2022/03/29 18:16:39;;;;;;;12.07;5.60;;;;;;;13.84;50.79;98768.66;12211246;19;20615;-79
2022/03/29 18:20:43;;;;;;;14.10;6.47;;;;;;;13.77;51.17;98764.59;12209316;19;20019;-79
2022/03/29 18:24:45;;;;;;;13.93;5.80;;;;;;;13.74;51.42;98770.72;12187860;19;20018;-79
2022/03/29 18:28:48;;;;;;;11.52;5.55;;;;;;;13.67;51.39;98771.91;12207731;19;20010;-79
2022/03/29 18:32:52;;;;;;;12.77;5.43;;;;;;;13.64;51.17;98764.19;12217338;19;20010;-78
2022/03/29 18:36:56;;;;;;;15.90;6.75;;;;;;;13.57;51.22;98760.97;12204624;19;20259;-78
2022/03/29 18:40:59;;;;;;;11.73;5.78;;;;;;;13.54;50.78;98760.75;12202455;19;20033;-78
2022/03/29 18:45:01;;;;;;;14.27;5.90;;;;;;;13.51;50.72;98753.03;12207513;19;20015;-77
2022/03/29 18:49:03;;;;;;;10.55;5.70;;;;;;;13.43;51.38;98760.84;12188003;19;20010;-77
2022/03/29 18:53:05;;;;;;;13.70;6.10;;;;;;;13.35;51.63;98753.19;12210979;19;20006;-77
2022/03/29 18:57:07;;;;;;;12.32;5.97;;;;;;;13.31;51.06;98765.16;12210037;19;20003;-78